createdAt,value
2022-08-26T00:00:48.822Z,17.90
2022-08-26T00:03:17.201Z,16.63
2022-08-26T00:05:47.460Z,20.23
2022-08-26T00:08:15.337Z,16.97
2022-08-26T00:10:43.514Z,17.40
2022-08-26T00:13:11.794Z,17.87
2022-08-26T00:15:41.204Z,17.90
2022-08-26T00:18:21.949Z,16.60
2022-08-26T00:20:50.731Z,18.40
2022-08-26T00:23:19.402Z,17.40
2022-08-26T00:25:51.693Z,19.33
2022-08-26T00:28:19.149Z,19.20
2022-08-26T00:30:49.312Z,19.40
2022-08-26T00:33:20.666Z,21.00
2022-08-26T00:35:48.330Z,18.33
2022-08-26T00:38:17.832Z,17.83
2022-08-26T00:40:59.941Z,19.87
2022-08-26T00:43:32.718Z,21.00
2022-08-26T00:46:29.494Z,18.90
2022-08-26T00:49:11.720Z,19.23
2022-08-26T00:51:47.787Z,20.67
2022-08-26T00:54:16.066Z,19.80
2022-08-26T00:56:56.804Z,20.60
2022-08-26T00:59:28.525Z,18.87
2022-08-26T01:01:57.293Z,18.60
2022-08-26T01:04:26.341Z,18.30
2022-08-26T01:06:55.336Z,18.07
2022-08-26T01:09:23.334Z,19.60
2022-08-26T01:11:54.682Z,18.90
2022-08-26T01:14:23.544Z,17.80
2022-08-26T01:16:51.308Z,18.60
2022-08-26T01:19:23.761Z,20.80
2022-08-26T01:21:59.257Z,18.13
2022-08-26T01:24:28.963Z,21.03
2022-08-26T01:27:12.422Z,19.43
2022-08-26T01:29:43.223Z,18.03
2022-08-26T01:32:14.709Z,18.47
2022-08-26T01:34:42.233Z,21.30
2022-08-26T01:37:25.316Z,22.00
2022-08-26T01:39:55.423Z,20.43
2022-08-26T01:42:26.010Z,22.03
2022-08-26T01:45:01.557Z,21.67
2022-08-26T01:47:32.191Z,20.67
2022-08-26T01:50:03.829Z,20.40
2022-08-26T01:52:34.147Z,20.83
2022-08-26T01:55:05.513Z,19.20
2022-08-26T01:57:35.899Z,21.20
2022-08-26T02:00:07.485Z,22.07
2022-08-26T02:02:36.237Z,19.90
2022-08-26T02:05:08.206Z,23.53
2022-08-26T02:07:37.620Z,21.97
2022-08-26T02:10:05.789Z,24.80
2022-08-26T02:12:33.572Z,20.43
2022-08-26T02:15:05.839Z,19.07
2022-08-26T02:17:42.368Z,20.63
2022-08-26T02:20:13.306Z,20.23
2022-08-26T02:22:42.940Z,19.73
2022-08-26T02:25:17.057Z,21.90
2022-08-26T02:27:45.884Z,18.73
2022-08-26T02:30:23.750Z,20.13
2022-08-26T02:32:51.924Z,20.23
2022-08-26T02:35:21.149Z,22.50
2022-08-26T02:37:51.713Z,19.60
2022-08-26T02:40:23.547Z,22.70
2022-08-26T02:42:57.150Z,20.00
2022-08-26T02:45:26.287Z,22.30
2022-08-26T02:47:54.122Z,20.27
2022-08-26T02:50:24.174Z,20.33
2022-08-26T02:52:52.978Z,20.90
2022-08-26T02:55:24.688Z,22.33
2022-08-26T02:57:57.647Z,22.20
2022-08-26T03:00:26.920Z,19.73
2022-08-26T03:02:54.531Z,18.60
2022-08-26T03:05:24.037Z,22.37
2022-08-26T03:07:51.476Z,24.23
2022-08-26T03:10:19.477Z,24.97
2022-08-26T03:12:48.698Z,23.47
2022-08-26T03:15:18.444Z,24.07
2022-08-26T03:17:47.894Z,20.43
2022-08-26T03:20:17.389Z,20.47
2022-08-26T03:22:45.216Z,21.43
2022-08-26T03:25:17.171Z,19.50
2022-08-26T03:27:45.003Z,20.50
2022-08-26T03:30:31.818Z,18.40
2022-08-26T03:33:00.331Z,21.23
2022-08-26T03:35:29.004Z,20.23
2022-08-26T03:37:58.834Z,20.17
2022-08-26T03:40:25.988Z,19.10
2022-08-26T03:42:56.531Z,18.80
2022-08-26T03:45:23.689Z,20.87
2022-08-26T03:47:51.960Z,18.90
2022-08-26T03:50:24.343Z,19.23
2022-08-26T03:52:53.076Z,19.50
2022-08-26T03:55:24.764Z,19.10
2022-08-26T03:57:53.193Z,18.37
2022-08-26T04:00:20.804Z,19.13
2022-08-26T04:02:53.181Z,19.87
2022-08-26T04:05:23.032Z,18.07
2022-08-26T04:07:51.491Z,18.77
2022-08-26T04:10:28.568Z,19.47
2022-08-26T04:12:58.903Z,19.47
2022-08-26T04:15:34.980Z,19.70
2022-08-26T04:18:06.854Z,18.70
2022-08-26T04:20:34.208Z,18.93
2022-08-26T04:23:02.012Z,18.70
2022-08-26T04:25:31.418Z,19.17
2022-08-26T04:27:59.903Z,18.70
2022-08-26T04:30:28.890Z,17.87
2022-08-26T04:32:59.150Z,17.93
2022-08-26T04:35:27.174Z,15.83
2022-08-26T04:37:54.512Z,16.77
2022-08-26T04:40:21.624Z,16.10
2022-08-26T04:42:52.330Z,16.77
2022-08-26T04:45:19.465Z,15.67
2022-08-26T04:47:56.441Z,16.37
2022-08-26T04:50:25.575Z,17.33
2022-08-26T04:52:59.706Z,15.30
2022-08-26T04:55:38.547Z,16.80
2022-08-26T04:58:10.139Z,17.90
2022-08-26T05:00:37.877Z,16.27
2022-08-26T05:03:04.643Z,15.50
2022-08-26T05:05:35.497Z,14.83
2022-08-26T05:08:03.369Z,15.40
2022-08-26T05:10:30.625Z,13.07
2022-08-26T05:13:00.252Z,14.37
2022-08-26T05:15:27.115Z,14.10
2022-08-26T05:17:54.094Z,14.67
2022-08-26T05:20:26.221Z,15.07
2022-08-26T05:22:53.892Z,14.40
2022-08-26T05:25:21.576Z,14.10
2022-08-26T05:27:48.887Z,13.13
2022-08-26T05:30:21.199Z,13.20
2022-08-26T05:32:53.594Z,12.30
2022-08-26T05:35:23.017Z,12.63
2022-08-26T05:37:51.544Z,13.30
2022-08-26T05:40:19.639Z,11.67
2022-08-26T05:42:48.691Z,12.83
2022-08-26T05:45:19.883Z,11.67
2022-08-26T05:47:48.064Z,13.00
2022-08-26T05:50:16.264Z,12.57
2022-08-26T05:55:59.483Z,11.70
2022-08-26T05:58:42.880Z,11.60
2022-08-26T06:01:28.120Z,11.13
2022-08-26T06:04:04.538Z,11.60
2022-08-26T06:06:42.864Z,10.83
2022-08-26T06:09:13.042Z,12.30
2022-08-26T06:11:40.399Z,11.30
2022-08-26T06:14:11.678Z,11.10
2022-08-26T06:16:46.690Z,10.70
2022-08-26T06:19:15.859Z,9.50
2022-08-26T06:21:54.197Z,11.20
2022-08-26T06:24:42.863Z,8.67
2022-08-26T06:27:15.236Z,10.10
2022-08-26T06:29:42.722Z,9.60
2022-08-26T06:32:09.813Z,9.30
2022-08-26T06:34:37.195Z,11.47
2022-08-26T06:37:12.203Z,10.90
2022-08-26T06:39:42.586Z,10.30
2022-08-26T06:42:11.871Z,10.40
2022-08-26T06:44:44.771Z,10.97
2022-08-26T06:47:14.411Z,10.17
2022-08-26T06:49:44.329Z,12.83
2022-08-26T06:52:22.510Z,11.73
2022-08-26T06:54:52.524Z,10.47
2022-08-26T06:57:21.651Z,11.77
2022-08-26T06:59:51.240Z,10.60
2022-08-26T07:02:20.816Z,12.10
2022-08-26T07:04:51.058Z,10.67
2022-08-26T07:07:21.874Z,10.53
2022-08-26T07:09:59.059Z,12.60
2022-08-26T07:12:29.297Z,11.30
2022-08-26T07:14:56.611Z,11.00
2022-08-26T07:17:26.958Z,10.37
2022-08-26T07:19:54.211Z,11.63
2022-08-26T07:22:23.996Z,11.50
2022-08-26T07:38:22.112Z,12.43
2022-08-26T07:43:26.118Z,10.97
2022-08-26T07:45:56.894Z,10.83
2022-08-26T07:48:25.565Z,11.30
2022-08-26T07:50:54.357Z,11.07
2022-08-26T07:53:24.168Z,10.87
2022-08-26T07:55:51.526Z,9.63
2022-08-26T07:58:20.664Z,9.40
2022-08-26T08:00:47.725Z,8.90
2022-08-26T08:03:15.260Z,8.93
2022-08-26T08:05:42.472Z,9.50
2022-08-26T08:08:27.565Z,9.83
2022-08-26T08:10:56.708Z,9.90
2022-08-26T08:13:24.395Z,10.17
2022-08-26T08:15:51.327Z,9.20
2022-08-26T08:18:20.557Z,9.13
2022-08-26T08:20:54.513Z,9.80
2022-08-26T08:23:34.285Z,9.00
2022-08-26T08:26:10.239Z,8.27
2022-08-26T08:28:38.969Z,9.23
2022-08-26T08:31:06.361Z,8.60
2022-08-26T08:33:35.335Z,7.83
2022-08-26T08:36:02.672Z,7.40
2022-08-26T08:38:31.776Z,7.30
2022-08-26T08:40:59.389Z,8.37
2022-08-26T08:52:26.900Z,7.00
2022-08-26T09:00:30.210Z,7.80
2022-08-26T09:03:03.981Z,8.20
2022-08-26T09:05:48.056Z,7.40
2022-08-26T09:11:01.835Z,6.83
2022-08-26T09:16:20.444Z,7.03
2022-08-26T09:21:53.577Z,6.00
2022-08-26T09:24:20.582Z,7.20
2022-08-26T09:27:02.577Z,6.50
2022-08-26T09:35:10.705Z,7.87
2022-08-26T09:40:34.514Z,6.20
2022-08-26T09:48:37.328Z,6.33
2022-08-26T09:51:26.469Z,6.70
2022-08-26T09:54:00.826Z,7.00
2022-08-26T09:59:13.111Z,5.97
2022-08-26T10:01:47.761Z,6.60
2022-08-26T10:07:06.530Z,7.17
2022-08-26T10:18:00.412Z,5.47
2022-08-26T10:20:31.660Z,6.20
2022-08-26T10:26:24.115Z,6.40
2022-08-26T10:37:27.929Z,5.73
2022-08-26T10:43:30.527Z,6.50
2022-08-26T10:49:01.451Z,6.60
2022-08-26T10:51:36.181Z,6.23
2022-08-26T10:57:15.402Z,5.67
2022-08-26T11:00:01.083Z,6.10
2022-08-26T11:08:19.729Z,6.50
2022-08-26T11:11:01.760Z,7.13
2022-08-26T11:13:59.632Z,5.50
2022-08-26T11:27:35.672Z,5.30
2022-08-26T11:35:37.795Z,6.10
2022-08-26T11:38:17.101Z,5.50
2022-08-26T11:41:19.417Z,5.20
2022-08-26T11:43:52.584Z,5.30
2022-08-26T11:46:30.812Z,4.87
2022-08-26T11:52:22.638Z,5.40
2022-08-26T12:01:03.611Z,4.83
2022-08-26T12:14:41.251Z,5.17
2022-08-26T12:23:12.217Z,5.23
2022-08-26T12:33:40.614Z,4.17
2022-08-26T12:38:45.112Z,4.30
2022-08-26T12:41:13.601Z,4.27
2022-08-26T12:46:32.333Z,4.07
2022-08-26T12:51:42.618Z,4.50
2022-08-26T12:54:23.550Z,3.93
2022-08-26T12:56:50.709Z,4.27
2022-08-26T12:59:25.280Z,4.50
2022-08-26T13:01:59.680Z,4.30
2022-08-26T13:04:42.905Z,3.70
2022-08-26T13:07:21.642Z,5.60
2022-08-26T13:15:13.836Z,4.80
2022-08-26T13:17:41.857Z,4.60
2022-08-26T13:20:11.601Z,4.73
2022-08-26T13:25:22.231Z,4.20
2022-08-26T13:30:28.350Z,4.20
2022-08-26T13:33:02.221Z,5.07
2022-08-26T13:41:06.893Z,4.43
2022-08-26T13:48:50.312Z,4.40
2022-08-26T13:51:22.306Z,4.77
2022-08-26T13:53:50.942Z,4.77
2022-08-26T13:59:02.075Z,4.40
2022-08-26T14:01:31.510Z,4.17
2022-08-26T14:03:58.816Z,4.40
2022-08-26T14:09:04.195Z,4.90
2022-08-26T14:11:41.158Z,4.23
2022-08-26T14:14:21.865Z,4.10
2022-08-26T14:16:59.950Z,3.90
2022-08-26T14:22:09.495Z,4.57
2022-08-26T14:24:36.691Z,4.30
2022-08-26T14:35:01.738Z,3.60
2022-08-26T14:37:31.949Z,4.80
2022-08-26T14:53:51.665Z,3.43
2022-08-26T14:59:03.044Z,4.10
2022-08-26T15:04:05.595Z,3.57
2022-08-26T15:14:33.257Z,3.40
2022-08-26T15:19:40.524Z,3.50
2022-08-26T15:24:43.127Z,3.35
2022-08-26T15:27:10.014Z,3.40
2022-08-26T15:29:38.099Z,2.97
2022-08-26T15:37:19.920Z,3.50
2022-08-26T15:48:00.830Z,3.70
2022-08-26T15:50:32.175Z,3.53
2022-08-26T15:55:40.673Z,3.70
2022-08-26T15:58:07.755Z,3.60
2022-08-26T16:00:36.730Z,4.30
2022-08-26T16:03:04.203Z,2.90
2022-08-26T16:05:31.153Z,3.13
2022-08-26T16:08:01.055Z,3.73
2022-08-26T16:10:28.321Z,3.53
2022-08-26T16:12:56.827Z,3.63
2022-08-26T16:15:26.825Z,3.40
2022-08-26T16:18:00.451Z,4.53
2022-08-26T16:23:23.995Z,3.20
2022-08-26T16:26:04.749Z,2.93
2022-08-26T16:31:19.636Z,3.60
2022-08-26T16:33:46.854Z,4.03
2022-08-26T16:36:15.380Z,3.50
2022-08-26T16:38:49.964Z,3.07
2022-08-26T16:41:20.349Z,3.60
2022-08-26T16:43:50.285Z,3.27
2022-08-26T16:46:20.214Z,3.50
2022-08-26T16:48:49.885Z,3.50
2022-08-26T16:51:19.131Z,3.57
2022-08-26T16:59:10.031Z,3.57
2022-08-26T17:01:37.349Z,2.93
2022-08-26T17:04:05.074Z,3.90
2022-08-26T17:06:31.933Z,3.07
2022-08-26T17:08:58.702Z,3.80
2022-08-26T17:13:56.853Z,4.00
2022-08-26T17:16:26.855Z,3.87
2022-08-26T17:21:30.907Z,3.60
2022-08-26T17:23:59.828Z,3.20
2022-08-26T17:26:28.741Z,3.47
2022-08-26T17:31:39.699Z,3.17
2022-08-26T17:34:12.002Z,3.27
2022-08-26T17:36:39.135Z,3.80
2022-08-26T17:39:06.440Z,3.57
2022-08-26T17:46:59.581Z,3.20
2022-08-26T17:52:03.677Z,4.10
2022-08-26T17:54:31.367Z,4.57
2022-08-26T17:57:01.427Z,3.87
2022-08-26T18:02:04.462Z,3.60
2022-08-26T18:04:31.962Z,4.23
2022-08-26T18:07:05.523Z,3.33
2022-08-26T18:09:33.070Z,3.67
2022-08-26T18:12:01.119Z,4.37
2022-08-26T18:14:28.555Z,3.40
2022-08-26T18:17:00.704Z,3.40
2022-08-26T18:19:28.203Z,4.00
2022-08-26T18:27:13.211Z,3.90
2022-08-26T18:32:15.894Z,3.67
2022-08-26T18:34:48.803Z,3.73
2022-08-26T18:37:16.855Z,4.97
2022-08-26T18:45:04.812Z,3.47
2022-08-26T18:47:32.511Z,5.50
2022-08-26T19:08:49.835Z,4.70
2022-08-26T19:19:14.116Z,3.80
2022-08-26T19:21:41.372Z,3.83
2022-08-26T20:04:19.208Z,4.63
2022-08-26T20:28:51.008Z,4.70
2022-08-26T20:34:14.255Z,4.30
2022-08-26T20:48:20.536Z,5.37
2022-08-26T20:50:49.319Z,4.67
2022-08-26T20:53:56.721Z,4.07
2022-08-26T21:00:27.048Z,4.60
2022-08-26T21:03:01.515Z,5.00
2022-08-26T21:05:28.985Z,3.93
2022-08-26T21:08:12.190Z,4.07
2022-08-26T21:14:03.529Z,5.60
2022-08-26T21:17:14.666Z,4.97
2022-08-26T21:21:36.118Z,5.00
2022-08-26T21:23:13.034Z,4.97
2022-08-26T21:25:44.550Z,4.47
2022-08-26T21:28:14.307Z,4.27
2022-08-26T21:31:03.144Z,5.20
2022-08-26T21:33:33.262Z,5.33
2022-08-26T21:36:05.959Z,6.10
2022-08-26T21:38:36.924Z,4.97
2022-08-26T21:41:19.708Z,5.60
2022-08-26T21:45:01.140Z,6.50
2022-08-26T21:47:45.689Z,5.40
2022-08-26T21:50:27.518Z,5.70
2022-08-26T21:52:56.155Z,5.03
2022-08-26T21:55:26.845Z,4.97
2022-08-26T21:58:49.497Z,5.63
2022-08-26T22:01:11.218Z,5.60
2022-08-26T22:06:17.153Z,6.10
2022-08-26T23:00:31.886Z,4.73
2022-08-26T23:07:06.353Z,4.93
2022-08-26T23:23:15.717Z,4.60
2022-08-26T23:28:41.868Z,5.73
2022-08-26T23:31:09.554Z,5.60
2022-08-26T23:33:56.956Z,5.90
2022-08-26T23:36:30.772Z,5.47
2022-08-26T23:38:59.023Z,7.20
2022-08-26T23:41:26.325Z,6.57
2022-08-26T23:43:59.565Z,5.80
2022-08-26T23:46:35.750Z,6.47
2022-08-26T23:49:06.421Z,6.80
2022-08-26T23:51:56.396Z,6.00
2022-08-26T23:54:31.850Z,6.30
2022-08-26T23:57:25.755Z,6.17
